sensor_id;sensor_type;location;lat;lon;timestamp;P1;durP1;ratioP1;P2;durP2;ratioP2
16137;SDS011;8174;43.550;5.206;2022-11-15T00:00:11;27.13;;;17.27;;
16137;SDS011;8174;43.550;5.206;2022-11-15T00:02:39;26.90;;;16.47;;
16137;SDS011;8174;43.550;5.206;2022-11-15T00:05:07;25.00;;;16.47;;
16137;SDS011;8174;43.550;5.206;2022-11-15T00:07:34;24.80;;;16.30;;
16137;SDS011;8174;43.550;5.206;2022-11-15T00:10:02;28.37;;;16.77;;
16137;SDS011;8174;43.550;5.206;2022-11-15T00:12:30;27.40;;;16.33;;
16137;SDS011;8174;43.550;5.206;2022-11-15T00:14:59;24.43;;;16.07;;
16137;SDS011;8174;43.550;5.206;2022-11-15T00:17:26;22.97;;;16.00;;
16137;SDS011;8174;43.550;5.206;2022-11-15T00:19:55;20.37;;;14.37;;
16137;SDS011;8174;43.550;5.206;2022-11-15T00:22:23;20.73;;;14.13;;
16137;SDS011;8174;43.550;5.206;2022-11-15T00:24:50;21.00;;;13.73;;
16137;SDS011;8174;43.550;5.206;2022-11-15T00:27:18;19.23;;;13.90;;
16137;SDS011;8174;43.550;5.206;2022-11-15T00:29:46;20.80;;;13.23;;
16137;SDS011;8174;43.550;5.206;2022-11-15T00:32:15;20.37;;;14.10;;
16137;SDS011;8174;43.550;5.206;2022-11-15T00:34:43;19.53;;;13.57;;
16137;SDS011;8174;43.550;5.206;2022-11-15T00:40:00;19.03;;;12.60;;
16137;SDS011;8174;43.550;5.206;2022-11-15T00:46:03;15.17;;;11.40;;
16137;SDS011;8174;43.550;5.206;2022-11-15T01:05:49;14.83;;;11.37;;
16137;SDS011;8174;43.550;5.206;2022-11-15T01:08:17;12.10;;;9.50;;
16137;SDS011;8174;43.550;5.206;2022-11-15T01:11:10;13.20;;;10.57;;
16137;SDS011;8174;43.550;5.206;2022-11-15T01:31:43;16.33;;;11.57;;
16137;SDS011;8174;43.550;5.206;2022-11-15T01:37:34;18.63;;;10.80;;
16137;SDS011;8174;43.550;5.206;2022-11-15T01:46:37;14.93;;;11.83;;
16137;SDS011;8174;43.550;5.206;2022-11-15T01:58:32;13.17;;;10.40;;
16137;SDS011;8174;43.550;5.206;2022-11-15T02:01:18;13.87;;;10.67;;
16137;SDS011;8174;43.550;5.206;2022-11-15T02:03:58;14.63;;;10.80;;
16137;SDS011;8174;43.550;5.206;2022-11-15T02:30:29;11.27;;;8.90;;
16137;SDS011;8174;43.550;5.206;2022-11-15T03:41:03;7.40;;;6.60;;
16137;SDS011;8174;43.550;5.206;2022-11-15T03:43:33;9.10;;;7.47;;
16137;SDS011;8174;43.550;5.206;2022-11-15T03:46:22;10.23;;;7.37;;
16137;SDS011;8174;43.550;5.206;2022-11-15T03:52:15;9.57;;;7.07;;
16137;SDS011;8174;43.550;5.206;2022-11-15T07:19:23;9.73;;;7.43;;
16137;SDS011;8174;43.550;5.206;2022-11-15T07:22:08;10.97;;;8.10;;
16137;SDS011;8174;43.550;5.206;2022-11-15T07:24:35;9.53;;;7.03;;
16137;SDS011;8174;43.550;5.206;2022-11-15T07:29:57;10.87;;;6.93;;
16137;SDS011;8174;43.550;5.206;2022-11-15T07:38:12;9.37;;;6.90;;
16137;SDS011;8174;43.550;5.206;2022-11-15T07:46:08;14.00;;;7.77;;
16137;SDS011;8174;43.550;5.206;2022-11-15T07:48:55;11.80;;;7.73;;
16137;SDS011;8174;43.550;5.206;2022-11-15T08:12:45;9.20;;;7.43;;
16137;SDS011;8174;43.550;5.206;2022-11-15T08:15:13;12.13;;;7.00;;
16137;SDS011;8174;43.550;5.206;2022-11-15T08:17:40;11.70;;;7.23;;
16137;SDS011;8174;43.550;5.206;2022-11-15T08:20:20;9.13;;;7.03;;
16137;SDS011;8174;43.550;5.206;2022-11-15T08:22:48;12.27;;;7.07;;
16137;SDS011;8174;43.550;5.206;2022-11-15T08:25:16;10.97;;;7.23;;
16137;SDS011;8174;43.550;5.206;2022-11-15T08:27:45;9.63;;;6.83;;
16137;SDS011;8174;43.550;5.206;2022-11-15T08:30:13;12.40;;;7.23;;
16137;SDS011;8174;43.550;5.206;2022-11-15T08:32:41;11.97;;;6.60;;
16137;SDS011;8174;43.550;5.206;2022-11-15T08:35:09;11.63;;;6.90;;
16137;SDS011;8174;43.550;5.206;2022-11-15T08:37:39;10.17;;;6.70;;
16137;SDS011;8174;43.550;5.206;2022-11-15T08:46:28;7.73;;;6.47;;
16137;SDS011;8174;43.550;5.206;2022-11-15T08:48:56;9.67;;;7.03;;
16137;SDS011;8174;43.550;5.206;2022-11-15T08:51:27;8.63;;;6.30;;
16137;SDS011;8174;43.550;5.206;2022-11-15T08:53:54;10.50;;;6.80;;
16137;SDS011;8174;43.550;5.206;2022-11-15T08:56:22;10.20;;;6.67;;
16137;SDS011;8174;43.550;5.206;2022-11-15T08:58:50;8.60;;;6.47;;
16137;SDS011;8174;43.550;5.206;2022-11-15T09:01:18;9.77;;;7.23;;
16137;SDS011;8174;43.550;5.206;2022-11-15T09:03:47;9.37;;;6.70;;
16137;SDS011;8174;43.550;5.206;2022-11-15T09:06:15;9.17;;;6.93;;
16137;SDS011;8174;43.550;5.206;2022-11-15T09:08:42;9.37;;;6.00;;
16137;SDS011;8174;43.550;5.206;2022-11-15T09:14:14;9.47;;;5.80;;
16137;SDS011;8174;43.550;5.206;2022-11-15T09:16:41;10.27;;;6.27;;
16137;SDS011;8174;43.550;5.206;2022-11-15T09:19:11;12.70;;;6.17;;
16137;SDS011;8174;43.550;5.206;2022-11-15T09:21:39;8.63;;;6.20;;
16137;SDS011;8174;43.550;5.206;2022-11-15T09:24:07;9.13;;;5.90;;
16137;SDS011;8174;43.550;5.206;2022-11-15T09:26:35;11.03;;;6.37;;
16137;SDS011;8174;43.550;5.206;2022-11-15T09:29:02;10.27;;;6.33;;
16137;SDS011;8174;43.550;5.206;2022-11-15T09:31:30;8.90;;;6.20;;
16137;SDS011;8174;43.550;5.206;2022-11-15T09:34:00;12.37;;;6.50;;
16137;SDS011;8174;43.550;5.206;2022-11-15T09:36:29;11.00;;;6.50;;
16137;SDS011;8174;43.550;5.206;2022-11-15T09:38:57;8.73;;;5.37;;
16137;SDS011;8174;43.550;5.206;2022-11-15T09:44:18;7.37;;;5.37;;
16137;SDS011;8174;43.550;5.206;2022-11-15T09:46:51;6.30;;;5.25;;
16137;SDS011;8174;43.550;5.206;2022-11-15T09:49:23;9.93;;;5.90;;
16137;SDS011;8174;43.550;5.206;2022-11-15T09:51:53;7.20;;;5.27;;
16137;SDS011;8174;43.550;5.206;2022-11-15T09:54:23;7.80;;;5.33;;
16137;SDS011;8174;43.550;5.206;2022-11-15T09:56:54;7.50;;;5.32;;
16137;SDS011;8174;43.550;5.206;2022-11-15T09:59:29;9.82;;;5.55;;
16137;SDS011;8174;43.550;5.206;2022-11-15T10:01:59;10.67;;;5.70;;
16137;SDS011;8174;43.550;5.206;2022-11-15T10:04:30;7.47;;;5.07;;
16137;SDS011;8174;43.550;5.206;2022-11-15T10:07:01;8.73;;;5.25;;
16137;SDS011;8174;43.550;5.206;2022-11-15T10:09:32;8.13;;;5.13;;
16137;SDS011;8174;43.550;5.206;2022-11-15T10:12:01;7.57;;;5.32;;
16137;SDS011;8174;43.550;5.206;2022-11-15T10:14:29;8.55;;;5.05;;
16137;SDS011;8174;43.550;5.206;2022-11-15T10:17:18;9.73;;;5.45;;
16137;SDS011;8174;43.550;5.206;2022-11-15T10:19:54;9.18;;;6.15;;
16137;SDS011;8174;43.550;5.206;2022-11-15T10:22:26;7.45;;;5.13;;
16137;SDS011;8174;43.550;5.206;2022-11-15T10:25:00;8.70;;;5.33;;
16137;SDS011;8174;43.550;5.206;2022-11-15T10:27:38;10.23;;;5.68;;
16137;SDS011;8174;43.550;5.206;2022-11-15T10:30:10;9.85;;;5.53;;
16137;SDS011;8174;43.550;5.206;2022-11-15T10:32:38;9.73;;;5.57;;
16137;SDS011;8174;43.550;5.206;2022-11-15T10:35:16;8.55;;;5.82;;
16137;SDS011;8174;43.550;5.206;2022-11-15T10:37:45;7.60;;;5.80;;
16137;SDS011;8174;43.550;5.206;2022-11-15T10:40:18;9.00;;;5.15;;
16137;SDS011;8174;43.550;5.206;2022-11-15T10:42:46;9.13;;;5.15;;
16137;SDS011;8174;43.550;5.206;2022-11-15T10:45:24;7.83;;;5.50;;
16137;SDS011;8174;43.550;5.206;2022-11-15T10:47:52;7.07;;;5.00;;
16137;SDS011;8174;43.550;5.206;2022-11-15T10:50:29;9.18;;;5.35;;
16137;SDS011;8174;43.550;5.206;2022-11-15T10:53:03;7.05;;;5.50;;
16137;SDS011;8174;43.550;5.206;2022-11-15T10:55:31;7.03;;;5.50;;
16137;SDS011;8174;43.550;5.206;2022-11-15T10:58:03;6.32;;;4.93;;
16137;SDS011;8174;43.550;5.206;2022-11-15T11:00:33;8.23;;;5.38;;
16137;SDS011;8174;43.550;5.206;2022-11-15T11:03:05;8.75;;;4.93;;
16137;SDS011;8174;43.550;5.206;2022-11-15T11:05:36;8.57;;;5.57;;
16137;SDS011;8174;43.550;5.206;2022-11-15T11:08:20;7.80;;;5.00;;
16137;SDS011;8174;43.550;5.206;2022-11-15T11:10:51;7.18;;;5.00;;
16137;SDS011;8174;43.550;5.206;2022-11-15T11:13:22;5.85;;;4.80;;
16137;SDS011;8174;43.550;5.206;2022-11-15T11:15:51;7.30;;;5.00;;
16137;SDS011;8174;43.550;5.206;2022-11-15T11:18:22;9.00;;;5.22;;
16137;SDS011;8174;43.550;5.206;2022-11-15T11:20:54;10.73;;;5.07;;
16137;SDS011;8174;43.550;5.206;2022-11-15T11:23:34;11.05;;;4.80;;
16137;SDS011;8174;43.550;5.206;2022-11-15T11:26:10;7.93;;;4.78;;
16137;SDS011;8174;43.550;5.206;2022-11-15T11:28:41;6.57;;;4.70;;
16137;SDS011;8174;43.550;5.206;2022-11-15T11:31:17;9.63;;;5.15;;
16137;SDS011;8174;43.550;5.206;2022-11-15T11:33:50;6.88;;;4.80;;
16137;SDS011;8174;43.550;5.206;2022-11-15T11:36:21;7.43;;;5.13;;
16137;SDS011;8174;43.550;5.206;2022-11-15T11:38:55;7.13;;;4.90;;
16137;SDS011;8174;43.550;5.206;2022-11-15T11:41:30;9.48;;;5.95;;
16137;SDS011;8174;43.550;5.206;2022-11-15T11:44:04;7.60;;;5.15;;
16137;SDS011;8174;43.550;5.206;2022-11-15T11:46:38;8.70;;;4.90;;
16137;SDS011;8174;43.550;5.206;2022-11-15T11:49:15;6.97;;;4.90;;
16137;SDS011;8174;43.550;5.206;2022-11-15T11:51:43;8.52;;;4.50;;
16137;SDS011;8174;43.550;5.206;2022-11-15T11:54:16;7.30;;;4.57;;
16137;SDS011;8174;43.550;5.206;2022-11-15T11:56:45;8.57;;;4.60;;
16137;SDS011;8174;43.550;5.206;2022-11-15T11:59:15;6.57;;;4.80;;
16137;SDS011;8174;43.550;5.206;2022-11-15T12:01:44;7.47;;;4.68;;
16137;SDS011;8174;43.550;5.206;2022-11-15T12:04:13;10.70;;;4.55;;
16137;SDS011;8174;43.550;5.206;2022-11-15T12:06:44;8.00;;;4.55;;
16137;SDS011;8174;43.550;5.206;2022-11-15T12:09:16;8.27;;;5.13;;
16137;SDS011;8174;43.550;5.206;2022-11-15T12:11:49;10.00;;;5.03;;
16137;SDS011;8174;43.550;5.206;2022-11-15T12:14:31;9.68;;;5.20;;
16137;SDS011;8174;43.550;5.206;2022-11-15T12:16:59;9.23;;;4.90;;
16137;SDS011;8174;43.550;5.206;2022-11-15T12:19:28;7.03;;;4.50;;
16137;SDS011;8174;43.550;5.206;2022-11-15T12:21:58;7.57;;;4.65;;
16137;SDS011;8174;43.550;5.206;2022-11-15T12:24:29;6.25;;;4.85;;
16137;SDS011;8174;43.550;5.206;2022-11-15T12:27:01;11.20;;;5.63;;
16137;SDS011;8174;43.550;5.206;2022-11-15T12:29:31;7.10;;;4.57;;
16137;SDS011;8174;43.550;5.206;2022-11-15T12:32:01;7.78;;;4.40;;
16137;SDS011;8174;43.550;5.206;2022-11-15T12:34:30;8.23;;;5.05;;
16137;SDS011;8174;43.550;5.206;2022-11-15T12:37:02;7.72;;;4.85;;
16137;SDS011;8174;43.550;5.206;2022-11-15T12:42:39;8.75;;;4.53;;
16137;SDS011;8174;43.550;5.206;2022-11-15T12:45:23;9.10;;;4.88;;
16137;SDS011;8174;43.550;5.206;2022-11-15T12:47:52;6.63;;;4.30;;
16137;SDS011;8174;43.550;5.206;2022-11-15T12:55:50;11.35;;;5.05;;
16137;SDS011;8174;43.550;5.206;2022-11-15T12:58:43;7.00;;;4.10;;
16137;SDS011;8174;43.550;5.206;2022-11-15T13:04:08;8.90;;;5.30;;
16137;SDS011;8174;43.550;5.206;2022-11-15T13:06:42;6.75;;;4.68;;
16137;SDS011;8174;43.550;5.206;2022-11-15T13:11:58;8.98;;;4.50;;
16137;SDS011;8174;43.550;5.206;2022-11-15T13:14:51;7.63;;;4.65;;
16137;SDS011;8174;43.550;5.206;2022-11-15T13:17:29;9.52;;;4.40;;
16137;SDS011;8174;43.550;5.206;2022-11-15T13:19:59;8.70;;;4.70;;
16137;SDS011;8174;43.550;5.206;2022-11-15T13:22:37;7.40;;;4.13;;
16137;SDS011;8174;43.550;5.206;2022-11-15T13:25:22;8.38;;;4.70;;
16137;SDS011;8174;43.550;5.206;2022-11-15T13:27:54;6.80;;;4.05;;
16137;SDS011;8174;43.550;5.206;2022-11-15T13:30:24;7.73;;;5.27;;
16137;SDS011;8174;43.550;5.206;2022-11-15T13:32:52;7.60;;;4.88;;
16137;SDS011;8174;43.550;5.206;2022-11-15T13:35:21;5.70;;;4.10;;
16137;SDS011;8174;43.550;5.206;2022-11-15T13:37:49;7.38;;;4.63;;
16137;SDS011;8174;43.550;5.206;2022-11-15T13:40:22;6.63;;;4.45;;
16137;SDS011;8174;43.550;5.206;2022-11-15T13:42:52;8.10;;;4.50;;
16137;SDS011;8174;43.550;5.206;2022-11-15T13:45:20;8.63;;;4.37;;
16137;SDS011;8174;43.550;5.206;2022-11-15T13:47:53;6.13;;;4.63;;
16137;SDS011;8174;43.550;5.206;2022-11-15T13:50:25;10.13;;;4.53;;
16137;SDS011;8174;43.550;5.206;2022-11-15T13:52:56;9.50;;;4.40;;
16137;SDS011;8174;43.550;5.206;2022-11-15T13:55:24;8.03;;;4.67;;
16137;SDS011;8174;43.550;5.206;2022-11-15T13:57:54;9.05;;;4.50;;
16137;SDS011;8174;43.550;5.206;2022-11-15T14:00:27;10.35;;;4.80;;
16137;SDS011;8174;43.550;5.206;2022-11-15T14:02:58;9.70;;;4.80;;
16137;SDS011;8174;43.550;5.206;2022-11-15T14:05:31;8.93;;;4.60;;
16137;SDS011;8174;43.550;5.206;2022-11-15T14:08:00;10.83;;;4.70;;
16137;SDS011;8174;43.550;5.206;2022-11-15T14:10:29;10.50;;;5.03;;
16137;SDS011;8174;43.550;5.206;2022-11-15T14:12:58;9.32;;;4.85;;
16137;SDS011;8174;43.550;5.206;2022-11-15T14:15:27;10.30;;;4.47;;
16137;SDS011;8174;43.550;5.206;2022-11-15T14:17:55;8.57;;;4.30;;
16137;SDS011;8174;43.550;5.206;2022-11-15T14:20:29;7.67;;;4.77;;
16137;SDS011;8174;43.550;5.206;2022-11-15T14:23:00;7.45;;;4.30;;
16137;SDS011;8174;43.550;5.206;2022-11-15T14:25:29;5.90;;;3.90;;
16137;SDS011;8174;43.550;5.206;2022-11-15T14:28:10;11.10;;;4.88;;
16137;SDS011;8174;43.550;5.206;2022-11-15T14:30:38;10.60;;;4.77;;
16137;SDS011;8174;43.550;5.206;2022-11-15T14:33:16;10.25;;;4.22;;
16137;SDS011;8174;43.550;5.206;2022-11-15T14:35:50;8.30;;;4.50;;
16137;SDS011;8174;43.550;5.206;2022-11-15T14:38:18;7.20;;;4.50;;
16137;SDS011;8174;43.550;5.206;2022-11-15T14:40:46;9.97;;;4.60;;
16137;SDS011;8174;43.550;5.206;2022-11-15T14:43:14;9.63;;;4.73;;
16137;SDS011;8174;43.550;5.206;2022-11-15T14:45:42;10.03;;;4.70;;
16137;SDS011;8174;43.550;5.206;2022-11-15T14:48:10;7.83;;;5.07;;
16137;SDS011;8174;43.550;5.206;2022-11-15T14:50:38;9.00;;;4.40;;
16137;SDS011;8174;43.550;5.206;2022-11-15T14:53:10;6.30;;;4.13;;
16137;SDS011;8174;43.550;5.206;2022-11-15T14:55:39;11.30;;;4.67;;
16137;SDS011;8174;43.550;5.206;2022-11-15T14:58:06;10.80;;;4.90;;
16137;SDS011;8174;43.550;5.206;2022-11-15T15:00:35;8.00;;;4.50;;
16137;SDS011;8174;43.550;5.206;2022-11-15T15:03:04;7.93;;;4.43;;
16137;SDS011;8174;43.550;5.206;2022-11-15T15:05:32;11.60;;;5.10;;
16137;SDS011;8174;43.550;5.206;2022-11-15T15:08:00;7.77;;;4.47;;
16137;SDS011;8174;43.550;5.206;2022-11-15T15:10:31;8.17;;;4.60;;
16137;SDS011;8174;43.550;5.206;2022-11-15T15:12:59;9.33;;;5.10;;
16137;SDS011;8174;43.550;5.206;2022-11-15T15:15:29;9.73;;;5.13;;
16137;SDS011;8174;43.550;5.206;2022-11-15T15:17:58;10.20;;;5.23;;
16137;SDS011;8174;43.550;5.206;2022-11-15T15:20:26;10.30;;;5.47;;
16137;SDS011;8174;43.550;5.206;2022-11-15T15:22:54;9.27;;;4.47;;
16137;SDS011;8174;43.550;5.206;2022-11-15T15:25:22;7.60;;;4.97;;
16137;SDS011;8174;43.550;5.206;2022-11-15T15:27:53;8.87;;;4.97;;
16137;SDS011;8174;43.550;5.206;2022-11-15T15:30:21;9.37;;;5.07;;
16137;SDS011;8174;43.550;5.206;2022-11-15T15:32:49;8.00;;;4.43;;
16137;SDS011;8174;43.550;5.206;2022-11-15T15:35:17;11.20;;;5.30;;
16137;SDS011;8174;43.550;5.206;2022-11-15T15:37:45;9.37;;;4.90;;
16137;SDS011;8174;43.550;5.206;2022-11-15T15:40:14;9.77;;;4.70;;
16137;SDS011;8174;43.550;5.206;2022-11-15T15:42:42;9.13;;;5.20;;
16137;SDS011;8174;43.550;5.206;2022-11-15T15:45:11;10.87;;;4.77;;
16137;SDS011;8174;43.550;5.206;2022-11-15T15:47:40;12.13;;;5.40;;
16137;SDS011;8174;43.550;5.206;2022-11-15T15:50:16;11.33;;;5.40;;
16137;SDS011;8174;43.550;5.206;2022-11-15T15:52:48;9.93;;;5.17;;
16137;SDS011;8174;43.550;5.206;2022-11-15T15:55:16;14.20;;;6.00;;
16137;SDS011;8174;43.550;5.206;2022-11-15T15:57:43;9.53;;;5.90;;
16137;SDS011;8174;43.550;5.206;2022-11-15T16:00:13;9.27;;;5.83;;
16137;SDS011;8174;43.550;5.206;2022-11-15T16:02:44;10.07;;;5.30;;
16137;SDS011;8174;43.550;5.206;2022-11-15T16:05:12;8.97;;;5.40;;
16137;SDS011;8174;43.550;5.206;2022-11-15T16:07:45;9.63;;;4.80;;
16137;SDS011;8174;43.550;5.206;2022-11-15T16:10:19;7.30;;;5.77;;
16137;SDS011;8174;43.550;5.206;2022-11-15T16:12:50;12.50;;;5.67;;
16137;SDS011;8174;43.550;5.206;2022-11-15T16:15:19;10.10;;;5.57;;
16137;SDS011;8174;43.550;5.206;2022-11-15T16:17:48;9.63;;;5.10;;
16137;SDS011;8174;43.550;5.206;2022-11-15T16:20:31;13.70;;;5.30;;
16137;SDS011;8174;43.550;5.206;2022-11-15T16:22:59;9.73;;;5.30;;
16137;SDS011;8174;43.550;5.206;2022-11-15T16:25:28;9.20;;;5.60;;
16137;SDS011;8174;43.550;5.206;2022-11-15T16:27:58;7.87;;;4.70;;
16137;SDS011;8174;43.550;5.206;2022-11-15T16:30:35;10.03;;;5.30;;
16137;SDS011;8174;43.550;5.206;2022-11-15T16:33:02;12.83;;;6.00;;
16137;SDS011;8174;43.550;5.206;2022-11-15T16:35:31;9.03;;;5.37;;
16137;SDS011;8174;43.550;5.206;2022-11-15T16:37:59;9.20;;;5.67;;
16137;SDS011;8174;43.550;5.206;2022-11-15T16:40:28;9.27;;;5.37;;
16137;SDS011;8174;43.550;5.206;2022-11-15T16:43:03;8.90;;;5.37;;
16137;SDS011;8174;43.550;5.206;2022-11-15T16:45:35;10.43;;;5.87;;
16137;SDS011;8174;43.550;5.206;2022-11-15T16:48:03;9.43;;;5.43;;
16137;SDS011;8174;43.550;5.206;2022-11-15T16:50:32;10.23;;;6.07;;
16137;SDS011;8174;43.550;5.206;2022-11-15T16:53:05;9.93;;;6.00;;
16137;SDS011;8174;43.550;5.206;2022-11-15T16:55:35;9.17;;;6.13;;
16137;SDS011;8174;43.550;5.206;2022-11-15T16:58:03;10.60;;;6.17;;
16137;SDS011;8174;43.550;5.206;2022-11-15T17:00:31;12.40;;;6.40;;
16137;SDS011;8174;43.550;5.206;2022-11-15T17:03:07;10.17;;;6.40;;
16137;SDS011;8174;43.550;5.206;2022-11-15T17:05:34;14.53;;;6.27;;
16137;SDS011;8174;43.550;5.206;2022-11-15T17:08:05;11.30;;;6.13;;
16137;SDS011;8174;43.550;5.206;2022-11-15T17:10:37;10.63;;;6.20;;
16137;SDS011;8174;43.550;5.206;2022-11-15T17:13:06;11.83;;;6.60;;
16137;SDS011;8174;43.550;5.206;2022-11-15T17:15:37;12.33;;;6.97;;
16137;SDS011;8174;43.550;5.206;2022-11-15T17:18:05;10.43;;;6.77;;
16137;SDS011;8174;43.550;5.206;2022-11-15T17:20:34;13.43;;;6.83;;
16137;SDS011;8174;43.550;5.206;2022-11-15T17:23:02;10.77;;;6.80;;
16137;SDS011;8174;43.550;5.206;2022-11-15T17:25:36;13.43;;;6.60;;
16137;SDS011;8174;43.550;5.206;2022-11-15T17:28:04;11.87;;;7.47;;
16137;SDS011;8174;43.550;5.206;2022-11-15T17:30:32;11.53;;;6.80;;
16137;SDS011;8174;43.550;5.206;2022-11-15T17:33:03;14.17;;;6.83;;
16137;SDS011;8174;43.550;5.206;2022-11-15T17:35:35;12.97;;;7.03;;
16137;SDS011;8174;43.550;5.206;2022-11-15T17:38:03;12.83;;;6.60;;
16137;SDS011;8174;43.550;5.206;2022-11-15T17:40:32;12.27;;;7.03;;
16137;SDS011;8174;43.550;5.206;2022-11-15T17:43:01;10.80;;;6.40;;
16137;SDS011;8174;43.550;5.206;2022-11-15T17:45:28;12.80;;;7.27;;
16137;SDS011;8174;43.550;5.206;2022-11-15T17:47:56;10.67;;;6.90;;
16137;SDS011;8174;43.550;5.206;2022-11-15T17:50:25;12.13;;;6.47;;
16137;SDS011;8174;43.550;5.206;2022-11-15T17:52:57;12.67;;;7.50;;
16137;SDS011;8174;43.550;5.206;2022-11-15T17:55:28;9.90;;;7.00;;
16137;SDS011;8174;43.550;5.206;2022-11-15T17:57:55;11.03;;;6.53;;
16137;SDS011;8174;43.550;5.206;2022-11-15T18:00:23;18.67;;;7.47;;
16137;SDS011;8174;43.550;5.206;2022-11-15T18:02:55;13.60;;;8.00;;
16137;SDS011;8174;43.550;5.206;2022-11-15T18:05:23;13.80;;;6.87;;
16137;SDS011;8174;43.550;5.206;2022-11-15T18:07:51;12.40;;;7.10;;
16137;SDS011;8174;43.550;5.206;2022-11-15T18:10:21;12.60;;;7.50;;
16137;SDS011;8174;43.550;5.206;2022-11-15T18:12:49;14.70;;;7.47;;
16137;SDS011;8174;43.550;5.206;2022-11-15T18:15:17;16.33;;;8.03;;
16137;SDS011;8174;43.550;5.206;2022-11-15T18:17:45;11.67;;;7.20;;
16137;SDS011;8174;43.550;5.206;2022-11-15T18:20:13;12.80;;;7.07;;
16137;SDS011;8174;43.550;5.206;2022-11-15T18:22:44;10.93;;;6.93;;
16137;SDS011;8174;43.550;5.206;2022-11-15T18:25:11;14.80;;;7.60;;
16137;SDS011;8174;43.550;5.206;2022-11-15T18:27:44;13.20;;;7.13;;
16137;SDS011;8174;43.550;5.206;2022-11-15T18:30:12;12.90;;;7.43;;
16137;SDS011;8174;43.550;5.206;2022-11-15T18:32:43;17.43;;;10.70;;
16137;SDS011;8174;43.550;5.206;2022-11-15T18:35:11;26.03;;;15.17;;
16137;SDS011;8174;43.550;5.206;2022-11-15T18:37:39;14.67;;;8.10;;
16137;SDS011;8174;43.550;5.206;2022-11-15T18:40:07;14.13;;;8.50;;
16137;SDS011;8174;43.550;5.206;2022-11-15T18:42:35;13.77;;;8.90;;
16137;SDS011;8174;43.550;5.206;2022-11-15T18:45:05;16.27;;;8.30;;
16137;SDS011;8174;43.550;5.206;2022-11-15T18:47:32;16.73;;;9.90;;
16137;SDS011;8174;43.550;5.206;2022-11-15T18:50:01;10.20;;;6.60;;
16137;SDS011;8174;43.550;5.206;2022-11-15T18:52:29;13.40;;;6.90;;
16137;SDS011;8174;43.550;5.206;2022-11-15T18:54:56;8.87;;;6.00;;
16137;SDS011;8174;43.550;5.206;2022-11-15T18:57:24;16.27;;;6.83;;
16137;SDS011;8174;43.550;5.206;2022-11-15T18:59:52;16.70;;;6.30;;
16137;SDS011;8174;43.550;5.206;2022-11-15T19:02:21;10.33;;;6.37;;
16137;SDS011;8174;43.550;5.206;2022-11-15T19:04:49;9.43;;;5.90;;
16137;SDS011;8174;43.550;5.206;2022-11-15T19:07:17;9.03;;;6.03;;
16137;SDS011;8174;43.550;5.206;2022-11-15T19:10:06;10.63;;;5.87;;
16137;SDS011;8174;43.550;5.206;2022-11-15T19:12:36;10.80;;;5.67;;
16137;SDS011;8174;43.550;5.206;2022-11-15T19:15:04;12.37;;;6.40;;
16137;SDS011;8174;43.550;5.206;2022-11-15T19:17:39;9.27;;;5.83;;
16137;SDS011;8174;43.550;5.206;2022-11-15T19:20:07;10.83;;;6.33;;
16137;SDS011;8174;43.550;5.206;2022-11-15T19:22:38;13.37;;;6.03;;
16137;SDS011;8174;43.550;5.206;2022-11-15T19:25:06;10.97;;;6.27;;
16137;SDS011;8174;43.550;5.206;2022-11-15T19:27:35;10.60;;;6.73;;
16137;SDS011;8174;43.550;5.206;2022-11-15T19:30:03;12.77;;;5.80;;
16137;SDS011;8174;43.550;5.206;2022-11-15T19:32:30;10.17;;;6.30;;
16137;SDS011;8174;43.550;5.206;2022-11-15T19:34:59;11.00;;;6.80;;
16137;SDS011;8174;43.550;5.206;2022-11-15T19:37:27;10.80;;;6.30;;
16137;SDS011;8174;43.550;5.206;2022-11-15T19:39:54;9.47;;;5.83;;
16137;SDS011;8174;43.550;5.206;2022-11-15T19:42:22;10.77;;;6.03;;
16137;SDS011;8174;43.550;5.206;2022-11-15T19:44:49;9.50;;;6.13;;
16137;SDS011;8174;43.550;5.206;2022-11-15T19:47:17;12.00;;;5.90;;
16137;SDS011;8174;43.550;5.206;2022-11-15T19:49:44;13.50;;;7.03;;
16137;SDS011;8174;43.550;5.206;2022-11-15T19:52:13;11.13;;;6.80;;
16137;SDS011;8174;43.550;5.206;2022-11-15T19:54:41;8.63;;;5.60;;
16137;SDS011;8174;43.550;5.206;2022-11-15T19:57:08;9.03;;;5.43;;
16137;SDS011;8174;43.550;5.206;2022-11-15T19:59:36;9.63;;;4.93;;
16137;SDS011;8174;43.550;5.206;2022-11-15T20:02:03;11.20;;;5.47;;
16137;SDS011;8174;43.550;5.206;2022-11-15T20:04:31;8.43;;;5.33;;
16137;SDS011;8174;43.550;5.206;2022-11-15T20:07:01;9.93;;;5.83;;
16137;SDS011;8174;43.550;5.206;2022-11-15T20:09:30;8.33;;;5.03;;
16137;SDS011;8174;43.550;5.206;2022-11-15T20:11:59;10.53;;;5.33;;
16137;SDS011;8174;43.550;5.206;2022-11-15T20:14:27;10.17;;;5.30;;
16137;SDS011;8174;43.550;5.206;2022-11-15T20:16:54;10.83;;;5.27;;
16137;SDS011;8174;43.550;5.206;2022-11-15T20:19:22;7.20;;;4.70;;
16137;SDS011;8174;43.550;5.206;2022-11-15T20:21:50;11.60;;;7.30;;
16137;SDS011;8174;43.550;5.206;2022-11-15T20:24:17;9.73;;;5.10;;
16137;SDS011;8174;43.550;5.206;2022-11-15T20:26:46;8.20;;;4.97;;
16137;SDS011;8174;43.550;5.206;2022-11-15T20:29:14;10.90;;;5.00;;
16137;SDS011;8174;43.550;5.206;2022-11-15T20:31:42;8.77;;;5.00;;
16137;SDS011;8174;43.550;5.206;2022-11-15T20:34:10;10.93;;;4.53;;
16137;SDS011;8174;43.550;5.206;2022-11-15T20:36:40;7.97;;;5.30;;
16137;SDS011;8174;43.550;5.206;2022-11-15T20:39:08;8.70;;;5.20;;
16137;SDS011;8174;43.550;5.206;2022-11-15T20:41:36;8.53;;;4.90;;
16137;SDS011;8174;43.550;5.206;2022-11-15T20:44:05;8.27;;;4.47;;
16137;SDS011;8174;43.550;5.206;2022-11-15T20:46:33;6.70;;;4.60;;
16137;SDS011;8174;43.550;5.206;2022-11-15T20:49:01;8.93;;;4.67;;
16137;SDS011;8174;43.550;5.206;2022-11-15T20:51:30;9.23;;;4.80;;
16137;SDS011;8174;43.550;5.206;2022-11-15T20:53:58;13.07;;;4.80;;
16137;SDS011;8174;43.550;5.206;2022-11-15T20:56:26;7.43;;;4.97;;
16137;SDS011;8174;43.550;5.206;2022-11-15T20:58:54;10.07;;;4.53;;
16137;SDS011;8174;43.550;5.206;2022-11-15T21:01:23;7.83;;;4.80;;
16137;SDS011;8174;43.550;5.206;2022-11-15T21:03:51;6.90;;;4.40;;
16137;SDS011;8174;43.550;5.206;2022-11-15T21:06:20;10.90;;;6.63;;
16137;SDS011;8174;43.550;5.206;2022-11-15T21:08:49;11.10;;;6.10;;
16137;SDS011;8174;43.550;5.206;2022-11-15T21:11:35;11.07;;;6.20;;
16137;SDS011;8174;43.550;5.206;2022-11-15T21:14:20;10.20;;;5.30;;
16137;SDS011;8174;43.550;5.206;2022-11-15T21:16:49;9.47;;;5.47;;
16137;SDS011;8174;43.550;5.206;2022-11-15T21:19:17;7.73;;;4.33;;
16137;SDS011;8174;43.550;5.206;2022-11-15T21:21:45;8.87;;;5.00;;
16137;SDS011;8174;43.550;5.206;2022-11-15T21:24:13;6.97;;;4.20;;
16137;SDS011;8174;43.550;5.206;2022-11-15T21:26:40;9.47;;;4.37;;
16137;SDS011;8174;43.550;5.206;2022-11-15T21:29:08;10.57;;;4.40;;
16137;SDS011;8174;43.550;5.206;2022-11-15T21:31:41;9.60;;;4.70;;
16137;SDS011;8174;43.550;5.206;2022-11-15T21:34:10;8.40;;;5.40;;
16137;SDS011;8174;43.550;5.206;2022-11-15T21:36:38;8.97;;;4.40;;
16137;SDS011;8174;43.550;5.206;2022-11-15T21:39:06;5.87;;;3.77;;
16137;SDS011;8174;43.550;5.206;2022-11-15T21:41:33;8.13;;;4.37;;
16137;SDS011;8174;43.550;5.206;2022-11-15T21:44:01;9.40;;;4.77;;
16137;SDS011;8174;43.550;5.206;2022-11-15T21:46:32;13.43;;;4.40;;
16137;SDS011;8174;43.550;5.206;2022-11-15T21:49:01;6.80;;;4.53;;
16137;SDS011;8174;43.550;5.206;2022-11-15T21:51:31;7.77;;;4.83;;
16137;SDS011;8174;43.550;5.206;2022-11-15T21:53:59;8.20;;;4.30;;
16137;SDS011;8174;43.550;5.206;2022-11-15T21:56:27;10.67;;;4.47;;
16137;SDS011;8174;43.550;5.206;2022-11-15T21:58:55;9.00;;;4.40;;
16137;SDS011;8174;43.550;5.206;2022-11-15T22:01:23;7.60;;;4.30;;
16137;SDS011;8174;43.550;5.206;2022-11-15T22:04:08;8.27;;;4.30;;
16137;SDS011;8174;43.550;5.206;2022-11-15T22:06:37;9.40;;;5.60;;
16137;SDS011;8174;43.550;5.206;2022-11-15T22:09:05;11.13;;;5.07;;
16137;SDS011;8174;43.550;5.206;2022-11-15T22:11:32;9.57;;;4.93;;
16137;SDS011;8174;43.550;5.206;2022-11-15T22:14:00;13.53;;;5.40;;